UGTB Airport Information

Runway Information
Runway 13L Length 8202 ft width 196 ft
Elevation 1621 ft Threshold 0 ft Heading 133
Runway 31R Length 8202 ft Width 196 ft
Elevation 1572 ft Threshold 0 ft Heading 313
Runway 13R Length 9843 ft width 147 ft
Elevation 1624 ft Threshold 0 ft Heading 136
Runway 31L Length 9843 ft Width 147 ft
Elevation 1558 ft Threshold 0 ft Heading 316
Airport Frequencies
Type APP Name APP Frequency 127.2 MHZ
Type ATIS Name ATIS Frequency 132.8 MHZ
Type GND Name GND Frequency 119 MHZ
Type TWR Name TWR Frequency 128 MHZ
Airport Navaids
Airport Weather Information & NOTAM
ADDS - METARS form results

(0008 UTC 28 September 2020)
Data provider http://aviationweather.gov/metar/data/
 
METAR text: UGTB 280000Z 17002KT 9999 FEW048 BKN068 18/13 Q1025 NOSIG
Conditions at: UGTB (TBILISI/NOVO-AL , GE) observed 0000 UTC 28 September 2020
Temperature: 18.0°C (64°F)
Dewpoint: 13.0°C (55°F) [RH = 73%]
Pressure (altimeter): 30.27 inches Hg (1025.0 mb)
Winds: from the S (170 degrees) at 2 MPH (2 knots; 1.0 m/s)
Visibility: 6 or more miles (10+ km)
Ceiling: 6800 feet AGL
Clouds: few clouds at 4800 feet AGL
broken clouds at 6800 feet AGL
Weather: no significant weather observed at this time

METAR text: UGTB 272330Z 13004KT 9999 FEW048 BKN067 18/13 Q1025 NOSIG
Conditions at: UGTB (TBILISI/NOVO-AL , GE) observed 2330 UTC 27 September 2020
Temperature: 18.0°C (64°F)
Dewpoint: 13.0°C (55°F) [RH = 73%]
Pressure (altimeter): 30.27 inches Hg (1025.0 mb)
Winds: from the SE (130 degrees) at 5 MPH (4 knots; 2.1 m/s)
Visibility: 6 or more miles (10+ km)
Ceiling: 6700 feet AGL
Clouds: few clouds at 4800 feet AGL
broken clouds at 6700 feet AGL
Weather: no significant weather observed at this time

Forecast for: UGTB (TBILISI/NOVO-AL , GE)
Text: TAF UGTB 272300Z 2800/2824 12007KT 9999 BKN044 TX23/2812Z TN17/2802Z
Forecast period: 0000 UTC 28 September 2020 to 0000 UTC 29 September 2020
Forecast type: FROM: standard forecast or significant change
Winds: from the ESE (120 degrees) at 8 MPH (7 knots; 3.6 m/s)
Visibility: 6 or more miles (10+ km)
Ceiling: 4400 feet AGL
Clouds: broken clouds at 4400 feet AGL
Weather: no significant weather forecast for this period